CYQW

North Battleford Airport

North Battleford, Saskatchewan, Canada
METAR CYQW 101500Z AUTO 11007KT 9SM CLR M13/M16 A2982 RMK SLP148
Observed Flight Rules
Dec-10 @ 15:00 UTC (33 minutes ago) Visual Flight Rules
Wind Visibility Clouds
110° at 7 knots 9 miles
  • Clear skies
Temperatures Readings
Current -13°C / 9°F
Dewpoint -16°C / 3°F
Humidity 78%
Altimeter 29.82" Hg
Pressure 1014.8 hPa
Elevation 548
METAR CYQW 101500Z AUTO 11007KT 9SM CLR M13/M16 A2982 RMK SLP148
Observed Flight Rules
Dec-10 @ 15:00 UTC
(33 minutes ago)
VFR
Wind Visibility
110° at 7 knots 9 miles
Clouds
  • Clear skies
Temperature Dewpoint
-13°C / 9°F -16°C / 3°F
Humidity Altimeter Pressure
78% 29.82" Hg 1014.8 hPa